Terminal Aerodrome Forecast
Issued by NWS

Home | Current Version | Previous Version | Text Only | Print | Product List | Glossary On
Versions: 1 2 3 4 5 6 7 8 9 10 11 12 13 14 15
000
FTUS44 KCRP 301100
TAFLRD
TAF
KLRD 301120Z 3012/3112 09008KT P6SM SCT015
     FM301500 13005KT P6SM SCT025 BKN100
     FM301900 15009KT P6SM SCT060 BKN120
     FM310700 14008KT P6SM SCT025 BKN120=

USA.gov is the U.S. government's official web portal to all federal, state and local government web resources and services.